Terminal Aerodrome Forecast
Issued by NWS

Home | Current Version | Previous Version | Text Only | Print | Product List | Glossary On
Versions: 1 2 3 4 5 6 7 8 9 10 11 12 13 14 15
000
FTUS44 KLIX 161738
TAFHDC
TAF
KHDC 161738Z 1618/1718 20005KT P6SM VCTS SCT025CB
      TEMPO 1618/1622 4SM +TSRA BKN035CB
     FM162200 20005KT P6SM VCTS SCT035CB
     FM170100 VRB03KT P6SM BKN150
     FM171500 25005KT P6SM FEW030=

USA.gov is the U.S. government's official web portal to all federal, state and local government web resources and services.